首页
METAR-TAF:

METAR-TAF

机场 :

科托卡国际机场

阿克拉, 加纳

纬度: 05-36N, 经度: 000-10W, 海拔: 68米

当前天气观测

该预报发布于1小时和7分钟前的02:00 UTC
风速11节,风向西转西南
温度 27°C
湿度 89%
气压 1011 hPa
能见度10公里或以上
阴天层高于1100英尺

METAR: DGAA 220200Z 24011KT 9999 OVC011 27/25 Q1011 NOSIG

时间: 03:07 (03:07 UTC)

预报

该预报发布于4小时和7分钟前的23:00 UTC
预报有效从22日的 00点(UTC)到 23日的 06点(UTC)
风速5节,风向西
能见度10公里或以上
多云层高于1000英尺
成为
从 22日的 04点(UTC)到 22日的 06点(UTC)
能見度: 4000
轻雾
成为
从 22日的 09点(UTC)到 22日的 11点(UTC)
能見度: 8000
少量云层高于2500英尺
成为
从 22日的 12点(UTC)到 14日的 点(UTC)
风速10节,风向
成为
从 22日的 18点(UTC)到 22日的 20点(UTC)
能见度10公里或以上
1500米以下无云,无积雨云

TAF: DGAA 212300Z 2200/2306 27005KT 9999 BKN010 BECMG 2204/2206 4000 BR BECMG 2209/2211 8000 FEW025 BECMG 2212/14 18010KT BECMG 2218/2220 CAVOK

超过4000个机场的气象观测和天气预报(METAR&TAF报告)。

可查询的气象台以黄色和红色小点在地图上表示。

将鼠标移到小点上方,可查看气象台名称。

然后点击查看天气观测和预报。

如需切换地图:点击带黑十字的绿色按钮放大地图;点击带横线的绿色按钮缩小地图;或者点击绿色箭头查看邻近地区的地图。


METAR-TAF: